Darstellungsparameter: Aktuell verwendete Einstellungen:
Skalierung der Graphiken ... ?
xyx+y,   Skalierungsfaktor:      Skalierung: Modus: x, Faktor: 1
Darstellungszeitraum ... ?
Vom - - bis: - -   Zeitraum: 06.11.2008 - 10.11.2008
Min/Max/Avg-Anzeige ... ?
Zeige MMA aktuell
Zeige MMA Monat
Zeige MMA alles
Zeige --A aktuell
Zeige --A Monat
Zeige --A alles
Keine MMA-Anzeige
MMA:
Average (ber die Originaldaten)
MMA-Basis: 17.04.2019 - 19.05.2019
Quicknavigation für Darstellung... ?
Tage:      1T, 2T, 3T, 5T -1T -2T -3T -5T +1T +2T +3T +5T
Wochen: 1W, 2W, 3W -1W -2W -3W +1W +2W +3W
Monate: 1M, 3M, 6M -1M -3M -6M +1M +3M +6M
Jahre:    1J, 3J, 5J, 10J -1J -3J -5J -10J +1J +3J +5J +10J
Nutze für die Darstellung ... ?
Originaldaten oder Mittelwerte auf ...
Stundenbasis Tagesbasis Wochenbasis
Monatsbasis Jahresbasis      Datenbasis: Original-Daten
Darstellen als:
Statistik (Auto) Statistik J:M      Darstellung:
Zur Graphik,    zurück zur Übersicht aller Sensoren.
 
Tabellarische Datenbersicht: ?
 
Sensor: Nr:Datum:Temp:Abs-Feuchte:Windchill:Wind:
Aussen-T/F 1 06-11-2008 00:11:34 10 C 7.99 g/m*3 10 C 0 km/h
2 06-11-2008 00:36:34 10 C 7.99 g/m*3 10 C 0 km/h
3 06-11-2008 01:01:34 10 C 7.99 g/m*3 10 C 0 km/h
4 06-11-2008 01:26:34 9.9 C 8.12 g/m*3 9.9 C 0 km/h
5 06-11-2008 01:51:34 9.8 C 8.07 g/m*3 9.8 C 0 km/h
6 06-11-2008 02:16:34 9.8 C 7.98 g/m*3 9.8 C 0 km/h
7 06-11-2008 02:41:34 9.7 C 7.84 g/m*3 9.7 C 0 km/h
8 06-11-2008 03:06:34 9.5 C 7.74 g/m*3 9.5 C 0 km/h
9 06-11-2008 03:31:34 9.3 C 7.73 g/m*3 9.3 C 0 km/h
10 06-11-2008 03:56:34 8.9 C 7.62 g/m*3 8.9 C 0 km/h
11 06-11-2008 04:21:34 8.5 C 7.43 g/m*3 8.5 C 0 km/h
12 06-11-2008 04:46:34 8.6 C 7.48 g/m*3 8.6 C 0 km/h
13 06-11-2008 05:11:34 8.9 C 7.71 g/m*3 8.9 C 0 km/h
14 06-11-2008 05:36:34 9 C 7.58 g/m*3 9 C 0 km/h
15 06-11-2008 06:01:34 9 C 7.58 g/m*3 9 C 0 km/h
16 06-11-2008 06:26:34 9.3 C 7.64 g/m*3 9.3 C 0 km/h
17 06-11-2008 06:51:34 9.3 C 7.46 g/m*3 9.3 C 0 km/h
18 06-11-2008 07:16:34 9.3 C 7.46 g/m*3 9.3 C 0 km/h
19 06-11-2008 07:41:35 9.1 C 7.36 g/m*3 9.1 C 0 km/h
20 06-11-2008 08:06:35 9.4 C 7.51 g/m*3 9.4 C 0 km/h
21 06-11-2008 08:31:35 9.7 C 7.56 g/m*3 9.7 C 0 km/h
22 06-11-2008 08:56:35 10 C 7.42 g/m*3 10 C 0 km/h
23 06-11-2008 09:21:35 10.3 C 7.47 g/m*3 10.3 C 0 km/h
24 06-11-2008 09:46:35 10.6 C 7.12 g/m*3 10.6 C 0 km/h
25 06-11-2008 10:11:35 11 C 7.01 g/m*3 11 C 0 km/h
Sensor: Nr:Datum:Temp:Abs-Feuchte:Windchill:Wind:
Aussen-T/F 26 06-11-2008 10:36:35 11.3 C 7.04 g/m*3 11.3 C 0 km/h
27 06-11-2008 11:01:35 12.1 C 7.18 g/m*3 12.1 C 0 km/h
28 06-11-2008 11:26:35 12.4 C 7.1 g/m*3 12.4 C 0 km/h
29 06-11-2008 11:51:35 12.2 C 6.91 g/m*3 12.2 C 0 km/h
30 06-11-2008 12:16:35 12.2 C 6.91 g/m*3 12.2 C 0 km/h
31 06-11-2008 12:41:35 12.1 C 6.97 g/m*3 12.1 C 0 km/h
32 06-11-2008 13:06:35 12.6 C 7.08 g/m*3 12.6 C 0 km/h
33 06-11-2008 13:31:35 12.7 C 7.01 g/m*3 12.7 C 0 km/h
34 06-11-2008 13:56:35 12.4 C 7.1 g/m*3 12.4 C 0 km/h
35 06-11-2008 14:21:35 13 C 7.14 g/m*3 13 C 0 km/h
36 06-11-2008 14:46:35 13.1 C 6.96 g/m*3 13.1 C 0 km/h
37 06-11-2008 15:11:35 13 C 6.92 g/m*3 13 C 0 km/h
38 06-11-2008 15:36:36 12.6 C 6.97 g/m*3 12.6 C 0 km/h
39 06-11-2008 16:01:36 12.4 C 6.99 g/m*3 12.4 C 0 km/h
40 06-11-2008 16:26:36 11.8 C 6.95 g/m*3 11.8 C 0 km/h
41 06-11-2008 16:51:36 11.4 C 6.98 g/m*3 11.4 C 0 km/h
42 06-11-2008 17:16:36 11.1 C 6.95 g/m*3 11.1 C 0 km/h
43 06-11-2008 17:41:36 10.9 C 7.06 g/m*3 10.9 C 0 km/h
44 06-11-2008 18:06:36 10.1 C 6.9 g/m*3 10.1 C 0 km/h
45 06-11-2008 18:31:36 10.1 C 7 g/m*3 10.1 C 0 km/h
46 06-11-2008 18:56:36 10.2 C 7.04 g/m*3 10.2 C 0 km/h
47 06-11-2008 19:21:36 10.4 C 7.13 g/m*3 10.4 C 0 km/h
48 06-11-2008 19:46:36 10.3 C 7.09 g/m*3 10.3 C 0 km/h
49 06-11-2008 20:11:36 10.2 C 7.14 g/m*3 10.2 C 0 km/h
50 06-11-2008 20:36:36 10.3 C 7.28 g/m*3 10.3 C 0 km/h
Sensor: Nr:Datum:Temp:Abs-Feuchte:Windchill:Wind:
Aussen-T/F 51 06-11-2008 21:01:36 10.2 C 7.23 g/m*3 10.2 C 0 km/h
52 06-11-2008 21:26:36 10.4 C 7.23 g/m*3 10.4 C 0 km/h
53 06-11-2008 21:51:36 10.3 C 7.18 g/m*3 10.3 C 0 km/h
54 06-11-2008 22:16:36 10.2 C 7.33 g/m*3 10.2 C 0 km/h
55 06-11-2008 22:41:36 10.2 C 7.33 g/m*3 10.2 C 0 km/h
56 06-11-2008 23:06:36 10.1 C 7.28 g/m*3 10.1 C 0 km/h
57 06-11-2008 23:31:37 10.2 C 7.23 g/m*3 10.2 C 0 km/h
58 06-11-2008 23:56:37 10.2 C 7.23 g/m*3 10.2 C 0 km/h
59 07-11-2008 00:21:37 10.1 C 7.19 g/m*3 10.1 C 0 km/h
60 07-11-2008 00:46:37 10.1 C 7.19 g/m*3 10.1 C 0 km/h
61 07-11-2008 01:11:37 10 C 7.24 g/m*3 10 C 0 km/h
62 07-11-2008 01:36:37 10 C 7.24 g/m*3 10 C 0 km/h
63 07-11-2008 02:01:37 10 C 7.14 g/m*3 10 C 0 km/h
64 07-11-2008 02:26:37 10 C 7.14 g/m*3 10 C 0 km/h
65 07-11-2008 02:51:37 9.9 C 7.28 g/m*3 9.9 C 0 km/h
66 07-11-2008 03:16:37 9.9 C 7.19 g/m*3 9.9 C 0 km/h
67 07-11-2008 03:41:37 10 C 7.14 g/m*3 10 C 0 km/h
68 07-11-2008 04:06:37 10.2 C 7.14 g/m*3 10.2 C 0 km/h
69 07-11-2008 04:31:37 10.1 C 7.19 g/m*3 10.1 C 0 km/h
70 07-11-2008 04:56:37 10.3 C 7.28 g/m*3 10.3 C 0 km/h
71 07-11-2008 05:21:37 10.3 C 7.28 g/m*3 10.3 C 0 km/h
72 07-11-2008 05:46:37 10.2 C 7.23 g/m*3 10.2 C 0 km/h
73 07-11-2008 06:11:37 10.1 C 7.19 g/m*3 10.1 C 0 km/h
74 07-11-2008 06:36:37 10 C 7.14 g/m*3 10 C 0 km/h
75 07-11-2008 07:01:37 10.1 C 7.09 g/m*3 10.1 C 0 km/h
Sensor: Nr:Datum:Temp:Abs-Feuchte:Windchill:Wind:
Aussen-T/F 76 07-11-2008 07:26:38 10.1 C 7 g/m*3 10.1 C 0 km/h
77 07-11-2008 07:51:38 9.8 C 7.05 g/m*3 9.8 C 0 km/h
78 07-11-2008 08:16:38 9.6 C 7.15 g/m*3 9.6 C 0 km/h
79 07-11-2008 08:41:38 10.3 C 6.99 g/m*3 10.3 C 0 km/h
80 07-11-2008 09:06:38 10.8 C 7.02 g/m*3 10.8 C 0 km/h
81 07-11-2008 09:31:38 11 C 6.91 g/m*3 11 C 0 km/h
82 07-11-2008 09:56:38 11.1 C 6.95 g/m*3 11.1 C 0 km/h
83 07-11-2008 10:21:38 11.3 C 7.04 g/m*3 11.3 C 0 km/h
84 07-11-2008 10:46:38 11.2 C 6.89 g/m*3 11.2 C 0 km/h
85 07-11-2008 11:11:38 11.6 C 6.96 g/m*3 11.6 C 0 km/h
86 07-11-2008 11:36:38 12.2 C 6.91 g/m*3 12.2 C 0 km/h
87 07-11-2008 12:01:38 12.7 C 6.9 g/m*3 12.7 C 0 km/h
88 07-11-2008 12:26:38 13.1 C 6.85 g/m*3 13.1 C 0 km/h
89 07-11-2008 12:51:38 13.2 C 6.77 g/m*3 13.2 C 0 km/h
90 07-11-2008 13:16:38 13.8 C 6.91 g/m*3 13.8 C 0 km/h
91 07-11-2008 13:41:38 13.6 C 6.71 g/m*3 13.6 C 0 km/h
92 07-11-2008 14:06:38 13.8 C 7.03 g/m*3 13.8 C 0 km/h
93 07-11-2008 14:31:38 14.5 C 7.09 g/m*3 14.5 C 0 km/h
94 07-11-2008 14:56:38 14 C 7 g/m*3 14 C 0 km/h
95 07-11-2008 15:21:38 13.8 C 7.27 g/m*3 13.8 C 0 km/h
96 07-11-2008 15:46:39 13.5 C 7.37 g/m*3 13.5 C 0 km/h
97 07-11-2008 16:11:39 13.1 C 7.3 g/m*3 13.1 C 0 km/h
98 07-11-2008 16:36:39 12.7 C 7.57 g/m*3 12.7 C 0 km/h
99 07-11-2008 17:01:39 12.4 C 7.43 g/m*3 12.4 C 0 km/h
100 07-11-2008 17:26:39 11.8 C 7.26 g/m*3 11.8 C 0 km/h
Sensor: Nr:Datum:Temp:Abs-Feuchte:Windchill:Wind:
Aussen-T/F 101 07-11-2008 17:51:39 11.1 C 7.15 g/m*3 11.1 C 0 km/h
102 07-11-2008 18:16:39 10.4 C 7.23 g/m*3 10.4 C 0 km/h
103 07-11-2008 18:41:39 10.4 C 7.42 g/m*3 10.4 C 0 km/h
104 07-11-2008 19:06:39 10.7 C 7.56 g/m*3 10.7 C 0 km/h
105 07-11-2008 19:31:39 10.6 C 7.32 g/m*3 10.6 C 0 km/h
106 07-11-2008 19:56:39 10 C 7.33 g/m*3 10 C 0 km/h
107 07-11-2008 20:21:39 9.9 C 7.56 g/m*3 9.9 C 0 km/h
108 07-11-2008 20:46:39 9.5 C 7.37 g/m*3 9.5 C 0 km/h
109 07-11-2008 21:11:39 9.1 C 7.36 g/m*3 9.1 C 0 km/h
110 07-11-2008 21:36:39 8.7 C 7.44 g/m*3 8.7 C 0 km/h
111 07-11-2008 22:01:39 8.4 C 7.38 g/m*3 8.4 C 0 km/h
112 07-11-2008 22:26:39 7.9 C 7.31 g/m*3 7.9 C 0 km/h
113 07-11-2008 22:51:39 7.5 C 7.12 g/m*3 7.5 C 0 km/h
114 07-11-2008 23:16:39 7.3 C 7.03 g/m*3 7.3 C 0 km/h
115 07-11-2008 23:41:40 7.3 C 7.11 g/m*3 7.3 C 0 km/h
116 08-11-2008 00:06:40 7.3 C 7.19 g/m*3 7.3 C 0 km/h
117 08-11-2008 00:31:40 6.9 C 7.08 g/m*3 6.9 C 0 km/h
118 08-11-2008 00:56:40 7.1 C 7.18 g/m*3 7.1 C 0 km/h
119 08-11-2008 01:21:40 7 C 7.13 g/m*3 7 C 0 km/h
120 08-11-2008 01:46:40 7.2 C 7.3 g/m*3 7.2 C 0 km/h
121 08-11-2008 02:11:40 7.3 C 7.35 g/m*3 7.3 C 0 km/h
122 08-11-2008 02:36:40 7.5 C 7.44 g/m*3 7.5 C 0 km/h
123 08-11-2008 03:01:40 7.8 C 7.59 g/m*3 7.8 C 0 km/h
124 08-11-2008 03:26:40 7.9 C 7.56 g/m*3 7.9 C 0 km/h
125 08-11-2008 03:51:40 8.1 C 7.57 g/m*3 8.1 C 0 km/h
Sensor: Nr:Datum:Temp:Abs-Feuchte:Windchill:Wind:
Aussen-T/F 126 08-11-2008 04:16:40 8.2 C 7.62 g/m*3 8.2 C 0 km/h
127 08-11-2008 04:41:40 8.3 C 7.67 g/m*3 8.3 C 0 km/h
128 08-11-2008 05:06:40 8.3 C 7.59 g/m*3 8.3 C 0 km/h
129 08-11-2008 05:31:40 8 C 7.44 g/m*3 8 C 0 km/h
130 08-11-2008 05:56:40 8.6 C 7.82 g/m*3 8.6 C 0 km/h
131 08-11-2008 06:21:40 8.6 C 7.65 g/m*3 8.6 C 0 km/h
132 08-11-2008 06:46:40 8.5 C 7.6 g/m*3 8.5 C 0 km/h
133 08-11-2008 07:11:40 8.5 C 7.77 g/m*3 8.5 C 0 km/h
134 08-11-2008 07:36:41 8 C 7.52 g/m*3 8 C 0 km/h
135 08-11-2008 08:01:41 7.9 C 7.64 g/m*3 7.9 C 0 km/h
136 08-11-2008 08:26:41 7.3 C 7.27 g/m*3 7.3 C 0 km/h
137 08-11-2008 08:51:41 7.2 C 7.3 g/m*3 7.2 C 0 km/h
138 08-11-2008 09:16:41 7.6 C 7.57 g/m*3 7.6 C 0 km/h
139 08-11-2008 09:41:41 8.2 C 7.87 g/m*3 8.2 C 0 km/h
140 08-11-2008 10:06:41 8.7 C 8.13 g/m*3 8.7 C 0 km/h
141 08-11-2008 10:31:41 8.9 C 7.88 g/m*3 8.9 C 0 km/h
142 08-11-2008 10:56:41 9.3 C 7.28 g/m*3 9.3 C 0 km/h
143 08-11-2008 11:21:41 9.7 C 6.36 g/m*3 9.7 C 0 km/h
144 08-11-2008 11:46:41 10.3 C 6.03 g/m*3 10.3 C 0 km/h
145 08-11-2008 12:11:41 10.9 C 5.97 g/m*3 10.9 C 0 km/h
146 08-11-2008 12:36:41 11.7 C 5.86 g/m*3 11.7 C 0 km/h
147 08-11-2008 13:01:41 12.2 C 5.4 g/m*3 12.2 C 0 km/h
148 08-11-2008 13:26:41 12.4 C 5.14 g/m*3 12.4 C 0 km/h
149 08-11-2008 13:51:01 12 C 5.33 g/m*3 12 C 0 km/h
150 08-11-2008 14:16:01 11.9 C 5.51 g/m*3 11.9 C 0 km/h
Sensor: Nr:Datum:Temp:Abs-Feuchte:Windchill:Wind:
Aussen-T/F 151 08-11-2008 14:41:01 12 C 5.44 g/m*3 12 C 0 km/h
152 08-11-2008 15:06:02 11.8 C 5.79 g/m*3 11.8 C 0 km/h
153 08-11-2008 15:31:02 12 C 5.86 g/m*3 12 C 0 km/h
154 08-11-2008 15:56:02 11.2 C 5.98 g/m*3 11.2 C 0 km/h
155 08-11-2008 16:21:02 10.2 C 5.8 g/m*3 10.2 C 0 km/h
156 08-11-2008 16:46:02 9.5 C 6.01 g/m*3 9.5 C 0 km/h
157 08-11-2008 17:11:02 8.8 C 6.09 g/m*3 8.8 C 0 km/h
158 08-11-2008 17:36:02 8.2 C 6.03 g/m*3 8.2 C 0 km/h
159 08-11-2008 18:01:02 7.7 C 6.08 g/m*3 7.7 C 0 km/h
160 08-11-2008 18:26:01 7.4 C 6.04 g/m*3 7.4 C 0 km/h
161 08-11-2008 18:51:01 7.2 C 6.12 g/m*3 7.2 C 0 km/h
162 08-11-2008 19:16:02 6.8 C 6.12 g/m*3 6.8 C 0 km/h
163 08-11-2008 19:41:02 6.5 C 6.15 g/m*3 6.5 C 0 km/h
164 08-11-2008 20:06:02 6.1 C 5.99 g/m*3 6.1 C 0 km/h
165 08-11-2008 20:31:02 5.8 C 6.02 g/m*3 5.8 C 0 km/h
166 08-11-2008 20:56:02 5.6 C 6.08 g/m*3 5.6 C 0 km/h
167 08-11-2008 21:21:02 5.3 C 5.96 g/m*3 5.3 C 0 km/h
168 08-11-2008 21:46:02 5.2 C 6.06 g/m*3 5.2 C 0 km/h
169 08-11-2008 22:11:03 5.1 C 6.02 g/m*3 5.1 C 0 km/h
170 08-11-2008 22:36:03 4.7 C 6 g/m*3 4.7 C 0 km/h
171 08-11-2008 23:01:02 4.9 C 6.14 g/m*3 4.9 C 0 km/h
172 08-11-2008 23:26:02 5.3 C 6.38 g/m*3 5.3 C 0 km/h
173 08-11-2008 23:50:02 5.8 C 6.66 g/m*3 5.8 C 0 km/h
174 09-11-2008 00:02:03 6.4 C 6.85 g/m*3 6.4 C 0 km/h
175 09-11-2008 00:14:03 6.7 C 6.84 g/m*3 6.7 C 0 km/h
Sensor: Nr:Datum:Temp:Abs-Feuchte:Windchill:Wind:
Aussen-T/F 176 09-11-2008 00:26:03 6.7 C 6.76 g/m*3 6.7 C 0 km/h
177 09-11-2008 00:38:03 7 C 6.74 g/m*3 7 C 0 km/h
178 09-11-2008 00:50:02 7 C 6.59 g/m*3 7 C 0 km/h
179 09-11-2008 01:02:03 6.6 C 6.42 g/m*3 6.6 C 0 km/h
180 09-11-2008 01:14:03 6.7 C 6.53 g/m*3 6.7 C 0 km/h
181 09-11-2008 01:26:02 6.5 C 6.37 g/m*3 6.5 C 0 km/h
182 09-11-2008 01:38:03 6.5 C 6.45 g/m*3 6.5 C 0 km/h
183 09-11-2008 01:50:02 6.4 C 6.41 g/m*3 6.4 C 0 km/h
184 09-11-2008 02:02:01 7.1 C 6.63 g/m*3 7.1 C 0 km/h
185 09-11-2008 02:14:01 7.5 C 6.56 g/m*3 7.5 C 0 km/h
186 09-11-2008 02:26:02 7.3 C 6.4 g/m*3 7.3 C 0 km/h
187 09-11-2008 02:38:01 7.6 C 6.53 g/m*3 7.6 C 0 km/h
188 09-11-2008 02:50:01 7.5 C 6.32 g/m*3 7.5 C 0 km/h
189 09-11-2008 03:02:01 7.7 C 6.49 g/m*3 7.7 C 0 km/h
190 09-11-2008 03:14:02 8 C 6.45 g/m*3 8 C 0 km/h
191 09-11-2008 03:26:02 8 C 6.45 g/m*3 8 C 0 km/h
192 09-11-2008 03:38:01 8.2 C 6.53 g/m*3 8.2 C 0 km/h
193 09-11-2008 03:50:01 8.8 C 6.61 g/m*3 8.8 C 0 km/h
194 09-11-2008 04:02:01 9.3 C 6.56 g/m*3 9.3 C 0 km/h
195 09-11-2008 04:14:01 9.4 C 6.51 g/m*3 9.4 C 0 km/h
196 09-11-2008 04:26:01 9.6 C 6.5 g/m*3 9.6 C 0 km/h
197 09-11-2008 04:38:01 9.3 C 6.47 g/m*3 9.3 C 0 km/h
198 09-11-2008 04:50:02 9.3 C 6.56 g/m*3 9.3 C 0 km/h
199 09-11-2008 05:02:01 9.2 C 6.52 g/m*3 9.2 C 0 km/h
200 09-11-2008 05:14:01 9.6 C 6.6 g/m*3 9.6 C 0 km/h
Sensor: Nr:Datum:Temp:Abs-Feuchte:Windchill:Wind:
Aussen-T/F 201 09-11-2008 05:26:02 9.7 C 6.64 g/m*3 9.7 C 0 km/h
202 09-11-2008 05:38:01 9.7 C 6.64 g/m*3 9.7 C 0 km/h
203 09-11-2008 05:50:02 9.6 C 6.6 g/m*3 9.6 C 0 km/h
204 09-11-2008 06:02:01 9.6 C 6.69 g/m*3 9.6 C 0 km/h
205 09-11-2008 06:14:01 9.6 C 6.6 g/m*3 9.6 C 0 km/h
206 09-11-2008 06:26:02 9.8 C 6.68 g/m*3 9.8 C 0 km/h
207 09-11-2008 06:38:01 9.7 C 6.64 g/m*3 9.7 C 0 km/h
208 09-11-2008 06:50:02 9.7 C 6.64 g/m*3 9.7 C 0 km/h
209 09-11-2008 07:02:01 9.9 C 6.82 g/m*3 9.9 C 0 km/h
210 09-11-2008 07:14:01 10 C 6.77 g/m*3 10 C 0 km/h
211 09-11-2008 07:26:02 9.8 C 6.87 g/m*3 9.8 C 0 km/h
212 09-11-2008 07:38:01 9.4 C 7.15 g/m*3 9.4 C 0 km/h
213 09-11-2008 07:50:01 9.2 C 7.41 g/m*3 9.2 C 0 km/h
214 09-11-2008 08:02:01 9.3 C 7.64 g/m*3 9.3 C 0 km/h
215 09-11-2008 08:14:01 9.1 C 7.72 g/m*3 9.1 C 0 km/h
216 09-11-2008 08:26:01 9.3 C 7.82 g/m*3 9.3 C 0 km/h
217 09-11-2008 08:38:01 9.4 C 7.96 g/m*3 9.4 C 0 km/h
218 09-11-2008 08:50:01 9.4 C 7.96 g/m*3 9.4 C 0 km/h
219 09-11-2008 09:02:02 9.6 C 8.15 g/m*3 9.6 C 0 km/h
220 09-11-2008 09:14:02 9.6 C 8.15 g/m*3 9.6 C 0 km/h
221 09-11-2008 09:26:01 9.7 C 8.2 g/m*3 9.7 C 0 km/h
222 09-11-2008 09:38:01 9.7 C 8.2 g/m*3 9.7 C 0 km/h
223 09-11-2008 09:50:01 9.8 C 8.35 g/m*3 9.8 C 0 km/h
224 09-11-2008 10:02:02 9.7 C 8.3 g/m*3 9.7 C 0 km/h
225 09-11-2008 10:14:02 9.7 C 8.3 g/m*3 9.7 C 0 km/h
Sensor: Nr:Datum:Temp:Abs-Feuchte:Windchill:Wind:
Aussen-T/F 226 09-11-2008 10:26:01 9.7 C 8.39 g/m*3 9.7 C 0 km/h
227 09-11-2008 10:38:02 9.8 C 8.44 g/m*3 9.8 C 0 km/h
228 09-11-2008 10:50:01 9.8 C 8.54 g/m*3 9.8 C 0 km/h
229 09-11-2008 11:02:02 9.8 C 8.54 g/m*3 9.8 C 0 km/h
230 09-11-2008 11:14:02 9.9 C 8.59 g/m*3 9.9 C 0 km/h
231 09-11-2008 11:26:01 10.1 C 8.7 g/m*3 10.1 C 0 km/h
232 09-11-2008 11:38:02 10.3 C 8.81 g/m*3 10.3 C 0 km/h
233 09-11-2008 11:50:02 10.3 C 8.81 g/m*3 10.3 C 0 km/h
234 09-11-2008 12:02:02 10.4 C 8.87 g/m*3 10.4 C 0 km/h
235 09-11-2008 12:14:02 10.7 C 9.04 g/m*3 10.7 C 0 km/h
236 09-11-2008 12:26:02 11 C 9.11 g/m*3 11 C 0 km/h
237 09-11-2008 12:38:02 10.8 C 8.99 g/m*3 10.8 C 0 km/h
238 09-11-2008 12:50:02 10.9 C 9.05 g/m*3 10.9 C 0 km/h
239 09-11-2008 13:02:02 10.6 C 8.69 g/m*3 10.6 C 0 km/h
240 09-11-2008 13:14:02 10.5 C 8.44 g/m*3 10.5 C 0 km/h
241 09-11-2008 13:26:02 10.6 C 8.39 g/m*3 10.6 C 0 km/h
242 09-11-2008 13:38:02 10.3 C 8.24 g/m*3 10.3 C 0 km/h
243 09-11-2008 13:50:02 9.8 C 7.61 g/m*3 9.8 C 0 km/h
244 09-11-2008 14:02:02 9.5 C 7.1 g/m*3 9.5 C 0 km/h
245 09-11-2008 14:14:02 9.7 C 7.19 g/m*3 9.7 C 0 km/h
246 09-11-2008 14:26:01 9.5 C 7.28 g/m*3 9.5 C 0 km/h
247 09-11-2008 14:38:02 9.6 C 7.51 g/m*3 9.6 C 0 km/h
248 09-11-2008 14:50:01 9.7 C 7.56 g/m*3 9.7 C 0 km/h
249 09-11-2008 15:02:01 9.8 C 7.24 g/m*3 9.8 C 0 km/h
250 09-11-2008 15:14:01 10.1 C 6.9 g/m*3 10.1 C 0 km/h
Sensor: Nr:Datum:Temp:Abs-Feuchte:Windchill:Wind:
Aussen-T/F 251 09-11-2008 15:26:02 10 C 6.95 g/m*3 10 C 0 km/h
252 09-11-2008 15:38:02 10.1 C 6.9 g/m*3 10.1 C 0 km/h
253 09-11-2008 15:50:01 9.9 C 7 g/m*3 9.9 C 0 km/h
254 09-11-2008 16:02:03 9.8 C 7.14 g/m*3 9.8 C 0 km/h
255 09-11-2008 16:14:03 9.6 C 7.15 g/m*3 9.6 C 0 km/h
256 09-11-2008 16:26:01 9.4 C 7.15 g/m*3 9.4 C 0 km/h
257 09-11-2008 16:38:02 9.2 C 7.23 g/m*3 9.2 C 0 km/h
258 09-11-2008 16:50:02 9.1 C 7.19 g/m*3 9.1 C 0 km/h
259 09-11-2008 17:02:02 9.1 C 7.19 g/m*3 9.1 C 0 km/h
260 09-11-2008 17:14:02 9 C 7.14 g/m*3 9 C 0 km/h
261 09-11-2008 17:26:02 8.8 C 7.22 g/m*3 8.8 C 0 km/h
262 09-11-2008 17:38:03 8.7 C 7.26 g/m*3 8.7 C 0 km/h
263 09-11-2008 17:50:02 8.7 C 7.26 g/m*3 8.7 C 0 km/h
264 09-11-2008 18:02:02 8.6 C 7.22 g/m*3 8.6 C 0 km/h
265 09-11-2008 18:14:02 8.5 C 7 g/m*3 8.5 C 0 km/h
266 09-11-2008 18:26:02 8.1 C 6.82 g/m*3 8.1 C 0 km/h
267 09-11-2008 18:38:02 7.9 C 6.82 g/m*3 7.9 C 0 km/h
268 09-11-2008 18:50:01 7.8 C 6.77 g/m*3 7.8 C 0 km/h
269 09-11-2008 19:02:02 7.6 C 6.69 g/m*3 7.6 C 0 km/h
270 09-11-2008 19:14:02 7.4 C 6.68 g/m*3 7.4 C 0 km/h
271 09-11-2008 19:26:03 7.4 C 6.76 g/m*3 7.4 C 0 km/h
272 09-11-2008 19:38:03 7.3 C 6.72 g/m*3 7.3 C 0 km/h
273 09-11-2008 19:50:02 7.4 C 6.84 g/m*3 7.4 C 0 km/h
274 09-11-2008 20:02:02 7.5 C 6.8 g/m*3 7.5 C 0 km/h
275 09-11-2008 20:14:02 7.4 C 6.76 g/m*3 7.4 C 0 km/h
Sensor: Nr:Datum:Temp:Abs-Feuchte:Windchill:Wind:
Aussen-T/F 276 09-11-2008 20:26:01 7.6 C 6.93 g/m*3 7.6 C 0 km/h
277 09-11-2008 20:38:02 7.4 C 6.76 g/m*3 7.4 C 0 km/h
278 09-11-2008 20:50:02 7.4 C 6.92 g/m*3 7.4 C 0 km/h
279 09-11-2008 21:02:01 7.6 C 7.01 g/m*3 7.6 C 0 km/h
280 09-11-2008 21:14:01 7.7 C 7.14 g/m*3 7.7 C 0 km/h
281 09-11-2008 21:26:02 7.9 C 7.23 g/m*3 7.9 C 0 km/h
282 09-11-2008 21:38:01 7.9 C 7.23 g/m*3 7.9 C 0 km/h
283 09-11-2008 21:50:02 7.9 C 7.31 g/m*3 7.9 C 0 km/h
284 09-11-2008 22:02:01 7.9 C 7.31 g/m*3 7.9 C 0 km/h
285 09-11-2008 22:14:01 7.8 C 7.35 g/m*3 7.8 C 0 km/h
286 09-11-2008 22:26:02 8 C 7.44 g/m*3 8 C 0 km/h
287 09-11-2008 22:38:01 8.3 C 7.67 g/m*3 8.3 C 0 km/h
288 09-11-2008 22:50:01 8.5 C 7.77 g/m*3 8.5 C 0 km/h
289 09-11-2008 23:02:01 8.5 C 7.77 g/m*3 8.5 C 0 km/h
290 09-11-2008 23:14:01 8.9 C 8.06 g/m*3 8.9 C 0 km/h
291 09-11-2008 23:26:01 9.3 C 8.27 g/m*3 9.3 C 0 km/h
292 09-11-2008 23:38:01 10.1 C 8.7 g/m*3 10.1 C 0 km/h
293 09-11-2008 23:50:01 11.4 C 9.34 g/m*3 11.4 C 0 km/h
294 10-11-2008 00:02:02 12 C 8.95 g/m*3 12 C 0 km/h
295 10-11-2008 00:14:02 12.1 C 8.69 g/m*3 12.1 C 0 km/h
296 10-11-2008 00:26:02 12.3 C 8.58 g/m*3 12.3 C 0 km/h
297 10-11-2008 00:38:02 12.3 C 8.58 g/m*3 12.3 C 0 km/h
298 10-11-2008 00:50:01 12.6 C 8.41 g/m*3 12.6 C 0 km/h
299 10-11-2008 01:02:02 12.9 C 8.34 g/m*3 12.9 C 0 km/h
300 10-11-2008 01:14:02 13 C 8.05 g/m*3 13 C 0 km/h
Sensor: Nr:Datum:Temp:Abs-Feuchte:Windchill:Wind:
Aussen-T/F 301 10-11-2008 01:26:01 13 C 7.94 g/m*3 13 C 0 km/h
302 10-11-2008 01:38:02 13 C 7.83 g/m*3 13 C 0 km/h
303 10-11-2008 01:50:02 13.1 C 7.53 g/m*3 13.1 C 0 km/h
304 10-11-2008 02:02:01 13 C 7.48 g/m*3 13 C 0 km/h
305 10-11-2008 02:14:01 13 C 7.48 g/m*3 13 C 0 km/h
306 10-11-2008 02:26:02 12.9 C 7.55 g/m*3 12.9 C 0 km/h
307 10-11-2008 02:38:01 12.5 C 7.81 g/m*3 12.5 C 0 km/h
308 10-11-2008 02:51:05 12 C 7.99 g/m*3 12 C 0 km/h
309 10-11-2008 03:03:05 11.8 C 8.21 g/m*3 11.8 C 0 km/h
310 10-11-2008 03:15:05 11.2 C 8.51 g/m*3 11.2 C 0 km/h
311 10-11-2008 03:27:05 11.1 C 8.66 g/m*3 11.1 C 0 km/h
312 10-11-2008 03:39:02 11.3 C 8.67 g/m*3 11.3 C 0 km/h
313 10-11-2008 03:51:02 11.6 C 8.52 g/m*3 11.6 C 0 km/h
314 10-11-2008 04:03:03 11.8 C 8.31 g/m*3 11.8 C 0 km/h
315 10-11-2008 04:15:02 11.9 C 8.26 g/m*3 11.9 C 0 km/h
316 10-11-2008 04:27:02 12 C 8.21 g/m*3 12 C 0 km/h
317 10-11-2008 04:39:03 12.3 C 8.25 g/m*3 12.3 C 0 km/h
318 10-11-2008 04:51:02 12.5 C 8.14 g/m*3 12.5 C 0 km/h
319 10-11-2008 05:03:02 12.5 C 8.14 g/m*3 12.5 C 0 km/h
320 10-11-2008 05:15:02 12.6 C 8.08 g/m*3 12.6 C 0 km/h
321 10-11-2008 05:27:02 12.8 C 8.06 g/m*3 12.8 C 0 km/h
322 10-11-2008 05:39:02 12.9 C 8 g/m*3 12.9 C 0 km/h
323 10-11-2008 05:51:01 13 C 7.83 g/m*3 13 C 0 km/h
324 10-11-2008 06:03:02 13 C 7.83 g/m*3 13 C 0 km/h
325 10-11-2008 06:15:02 13 C 7.83 g/m*3 13 C 0 km/h
Sensor: Nr:Datum:Temp:Abs-Feuchte:Windchill:Wind:
Aussen-T/F 326 10-11-2008 06:27:02 13 C 7.83 g/m*3 13 C 0 km/h
327 10-11-2008 06:39:02 13.1 C 7.76 g/m*3 13.1 C 0 km/h
328 10-11-2008 06:51:02 13 C 7.71 g/m*3 13 C 0 km/h
329 10-11-2008 07:03:02 13.1 C 7.76 g/m*3 13.1 C 0 km/h
330 10-11-2008 07:15:02 13.3 C 7.74 g/m*3 13.3 C 0 km/h
331 10-11-2008 07:27:02 13.2 C 7.69 g/m*3 13.2 C 0 km/h
332 10-11-2008 07:39:02 13.1 C 7.87 g/m*3 13.1 C 0 km/h
333 10-11-2008 07:51:02 12.8 C 8.18 g/m*3 12.8 C 0 km/h
334 10-11-2008 08:03:03 12.7 C 8.24 g/m*3 12.7 C 0 km/h
335 10-11-2008 08:15:02 13 C 8.28 g/m*3 13 C 0 km/h
336 10-11-2008 08:27:02 13 C 8.28 g/m*3 13 C 0 km/h
337 10-11-2008 08:39:03 12.8 C 8.4 g/m*3 12.8 C 0 km/h
338 10-11-2008 08:51:02 13 C 8.39 g/m*3 13 C 0 km/h
339 10-11-2008 09:03:01 13 C 8.28 g/m*3 13 C 0 km/h
340 10-11-2008 09:15:02 13 C 8.28 g/m*3 13 C 0 km/h
341 10-11-2008 09:27:03 13.2 C 8.27 g/m*3 13.2 C 0 km/h
342 10-11-2008 09:39:01 13.4 C 8.14 g/m*3 13.4 C 0 km/h
343 10-11-2008 09:51:02 13.5 C 8.07 g/m*3 13.5 C 0 km/h
344 10-11-2008 10:03:01 13.7 C 8.05 g/m*3 13.7 C 0 km/h
345 10-11-2008 10:15:02 13.7 C 7.93 g/m*3 13.7 C 0 km/h
346 10-11-2008 10:27:02 13.7 C 7.93 g/m*3 13.7 C 0 km/h
347 10-11-2008 10:39:01 13.8 C 7.98 g/m*3 13.8 C 0 km/h
348 10-11-2008 10:51:01 14 C 7.96 g/m*3 14 C 0 km/h
349 10-11-2008 11:03:01 14 C 8.08 g/m*3 14 C 0 km/h
350 10-11-2008 11:15:01 13.8 C 8.22 g/m*3 13.8 C 0 km/h
Sensor: Nr:Datum:Temp:Abs-Feuchte:Windchill:Wind:
Aussen-T/F 351 10-11-2008 11:27:01 14 C 8.2 g/m*3 14 C 0 km/h
352 10-11-2008 11:39:01 14.2 C 8.06 g/m*3 14.2 C 0 km/h
353 10-11-2008 11:51:01 14.4 C 8.03 g/m*3 14.4 C 0 km/h
354 10-11-2008 12:03:02 14.7 C 7.93 g/m*3 14.7 C 0 km/h
355 10-11-2008 12:15:02 15.2 C 7.92 g/m*3 15.2 C 0 km/h
356 10-11-2008 12:27:02 15 C 7.82 g/m*3 15 C 0 km/h
357 10-11-2008 12:39:02 15.1 C 7.87 g/m*3 15.1 C 0 km/h
358 10-11-2008 12:51:02 14.9 C 7.9 g/m*3 14.9 C 0 km/h
359 10-11-2008 13:03:01 14.9 C 7.77 g/m*3 14.9 C 0 km/h
360 10-11-2008 13:15:02 15 C 7.69 g/m*3 15 C 0 km/h
361 10-11-2008 13:27:02 14.7 C 7.81 g/m*3 14.7 C 0 km/h
362 10-11-2008 13:39:02 14.8 C 7.85 g/m*3 14.8 C 0 km/h
363 10-11-2008 13:51:02 14.9 C 7.77 g/m*3 14.9 C 0 km/h
364 10-11-2008 14:03:02 15.3 C 7.84 g/m*3 15.3 C 0 km/h
365 10-11-2008 14:15:02 15.3 C 7.57 g/m*3 15.3 C 0 km/h
366 10-11-2008 14:27:02 15.1 C 7.74 g/m*3 15.1 C 0 km/h
367 10-11-2008 14:39:02 15 C 7.82 g/m*3 15 C 0 km/h
368 10-11-2008 14:51:02 14.8 C 7.85 g/m*3 14.8 C 0 km/h
369 10-11-2008 15:03:01 14.8 C 7.73 g/m*3 14.8 C 0 km/h
370 10-11-2008 15:15:02 14.8 C 7.73 g/m*3 14.8 C 0 km/h
371 10-11-2008 15:27:03 14.8 C 7.73 g/m*3 14.8 C 0 km/h
372 10-11-2008 15:39:01 14.9 C 7.77 g/m*3 14.9 C 0 km/h
373 10-11-2008 15:51:03 14.8 C 7.73 g/m*3 14.8 C 0 km/h
374 10-11-2008 16:03:02 14.8 C 7.73 g/m*3 14.8 C 0 km/h
375 10-11-2008 16:15:03 14.8 C 7.73 g/m*3 14.8 C 0 km/h
Sensor: Nr:Datum:Temp:Abs-Feuchte:Windchill:Wind:
Aussen-T/F 376 10-11-2008 16:27:03 14.7 C 7.81 g/m*3 14.7 C 0 km/h
377 10-11-2008 16:39:02 14.6 C 7.76 g/m*3 14.6 C 0 km/h
378 10-11-2008 16:51:02 14.5 C 7.84 g/m*3 14.5 C 0 km/h
379 10-11-2008 17:03:02 14.5 C 7.71 g/m*3 14.5 C 0 km/h
380 10-11-2008 17:15:02 14.6 C 7.63 g/m*3 14.6 C 0 km/h
381 10-11-2008 17:27:02 14.7 C 7.55 g/m*3 14.7 C 0 km/h
382 10-11-2008 17:39:02 14.7 C 7.55 g/m*3 14.7 C 0 km/h
383 10-11-2008 17:51:01 14.9 C 7.65 g/m*3 14.9 C 0 km/h
384 10-11-2008 18:03:02 15.1 C 7.48 g/m*3 15.1 C 0 km/h
385 10-11-2008 18:15:01 15.2 C 7.4 g/m*3 15.2 C 0 km/h
386 10-11-2008 18:27:01 15.2 C 7.4 g/m*3 15.2 C 0 km/h
387 10-11-2008 18:39:02 14.9 C 7.39 g/m*3 14.9 C 0 km/h
388 10-11-2008 18:51:02 15.1 C 7.22 g/m*3 15.1 C 0 km/h
389 10-11-2008 19:03:03 15.1 C 7.1 g/m*3 15.1 C 0 km/h
390 10-11-2008 19:15:02 15.2 C 7.14 g/m*3 15.2 C 0 km/h
391 10-11-2008 19:27:02 15 C 7.05 g/m*3 15 C 0 km/h
392 10-11-2008 19:39:03 15.1 C 7.1 g/m*3 15.1 C 0 km/h
393 10-11-2008 19:51:02 15.2 C 7.14 g/m*3 15.2 C 0 km/h
394 10-11-2008 20:03:02 15.1 C 7.22 g/m*3 15.1 C 0 km/h
395 10-11-2008 20:15:02 15.3 C 7.31 g/m*3 15.3 C 0 km/h
396 10-11-2008 20:27:02 15.3 C 7.31 g/m*3 15.3 C 0 km/h
397 10-11-2008 20:39:02 15.3 C 7.31 g/m*3 15.3 C 0 km/h
398 10-11-2008 20:51:02 15.4 C 7.36 g/m*3 15.4 C 0 km/h
399 10-11-2008 21:03:02 15.5 C 7.53 g/m*3 15.5 C 0 km/h
400 10-11-2008 21:15:02 15.5 C 7.53 g/m*3 15.5 C 0 km/h
Sensor: Nr:Datum:Temp:Abs-Feuchte:Windchill:Wind:
Aussen-T/F 401 10-11-2008 21:27:02 15.6 C 7.58 g/m*3 15.6 C 0 km/h
402 10-11-2008 21:39:02 15.4 C 7.75 g/m*3 15.4 C 0 km/h
403 10-11-2008 21:51:01 15.2 C 8.05 g/m*3 15.2 C 0 km/h
404 10-11-2008 22:03:02 15.3 C 7.97 g/m*3 15.3 C 0 km/h
405 10-11-2008 22:15:02 15.2 C 8.05 g/m*3 15.2 C 0 km/h
406 10-11-2008 22:27:02 15.5 C 7.93 g/m*3 15.5 C 0 km/h
407 10-11-2008 22:39:02 15.7 C 7.63 g/m*3 15.7 C 0 km/h
408 10-11-2008 22:52:02 15.8 C 7.67 g/m*3 15.8 C 0 km/h
409 10-11-2008 23:04:02 15.8 C 7.54 g/m*3 15.8 C 0 km/h
410 10-11-2008 23:16:02 15.9 C 7.58 g/m*3 15.9 C 0 km/h
411 10-11-2008 23:28:02 15.8 C 7.54 g/m*3 15.8 C 0 km/h
412 10-11-2008 23:40:02 15.8 C 7.54 g/m*3 15.8 C 0 km/h
413 10-11-2008 23:52:02 16 C 7.49 g/m*3 16 C 0 km/h

Legende:
   Min
   Max


Maximal/Minimal-Werte vom 17.04.2019 - 19.05.2019

Sensor Min Max Avg
Temp
(Aussen-T/F)
2.2 °C
13-05-2019  06:50:00
26.6 °C
24-04-2019  17:05:00
11.51 °C

Die Daten stammen von einer Davis Vantage Pro 2 Wetter-Station und werden unter Linux mit der Software wview2wettercgi und aufbereitet. Alle Angaben erfolgen ohne Gewähr für ihre Vollständigkeit oder Richtigkeit.
Kontakt: Rainer Krienke krienke@uni-koblenz.de . Meine Webseiten an der Uni Koblenz oder privat.
Version: $Revision: 0.78 $